Terminal Aerodrome Forecast
Issued by NWS

Home | Current Version | Previous Version | Text Only | Print | Product List | Glossary Off
Versions: 1 2 3 4 5 6 7 8 9 10 11 12 13 14 15 16 17 18 19

000
FTUS43 KGRB 151700
TAFCWA
TAF
KCWA 151737Z 1518/1618 29012KT P6SM SCT050
      TEMPO 1518/1520 -SN BKN050
     FM152300 27005KT P6SM SCT200
     FM160500 12004KT P6SM OVC120
     FM161000 12010KT P6SM -SN SCT025 OVC040
      TEMPO 1612/1614 3SM -SN BKN020
     FM161400 12015G25KT 1 1/2SM -SN SCT006 OVC015=

USA.gov is the U.S. government's official web portal to all federal, state and local government web resources and services.